createdAt,value
2019-02-16T00:01:12.174Z,35.35
2019-02-16T00:03:41.147Z,35.38
2019-02-16T00:06:10.098Z,35.45
2019-02-16T00:08:39.055Z,35.49
2019-02-16T00:11:07.982Z,35.51
2019-02-16T00:13:36.950Z,35.55
2019-02-16T00:16:05.873Z,35.60
2019-02-16T00:18:34.836Z,35.68
2019-02-16T00:21:04.458Z,35.73
2019-02-16T00:23:33.600Z,35.80
2019-02-16T00:26:02.533Z,35.83
2019-02-16T00:28:31.493Z,35.89
2019-02-16T00:31:00.458Z,35.95
2019-02-16T00:33:29.403Z,35.96
2019-02-16T00:35:58.329Z,36.00
2019-02-16T00:38:27.260Z,36.05
2019-02-16T00:40:56.194Z,36.12
2019-02-16T00:43:25.123Z,36.13
2019-02-16T00:45:54.060Z,36.18
2019-02-16T00:48:22.994Z,36.20
2019-02-16T00:50:51.993Z,36.27
2019-02-16T00:53:20.924Z,36.28
2019-02-16T00:55:49.870Z,36.31
2019-02-16T00:58:18.804Z,36.35
2019-02-16T01:00:47.790Z,36.39
2019-02-16T01:03:16.698Z,36.44
2019-02-16T01:05:45.608Z,36.49
2019-02-16T01:08:14.572Z,36.54
2019-02-16T01:10:43.657Z,36.60
2019-02-16T01:13:12.634Z,36.60
2019-02-16T01:15:41.583Z,36.66
2019-02-16T01:18:10.576Z,36.71
2019-02-16T01:20:39.498Z,36.78
2019-02-16T01:23:08.443Z,36.81
2019-02-16T01:25:37.374Z,36.83
2019-02-16T01:28:06.314Z,36.89
2019-02-16T01:30:35.297Z,36.89
2019-02-16T01:33:04.237Z,36.93
2019-02-16T01:35:33.200Z,36.96
2019-02-16T01:38:02.176Z,37.00
2019-02-16T01:40:31.084Z,37.03
2019-02-16T01:43:00.032Z,37.05
2019-02-16T01:45:29.020Z,37.13
2019-02-16T01:47:57.950Z,37.14
2019-02-16T01:50:26.884Z,37.21
2019-02-16T01:52:55.845Z,37.21
2019-02-16T01:55:24.805Z,37.25
2019-02-16T01:57:53.769Z,37.26
2019-02-16T02:00:22.662Z,37.30
2019-02-16T02:02:51.628Z,37.34
2019-02-16T02:05:20.619Z,37.38
2019-02-16T02:07:49.561Z,37.42
2019-02-16T02:10:18.509Z,37.44
2019-02-16T02:12:47.474Z,37.46
2019-02-16T02:15:16.451Z,37.49
2019-02-16T02:17:45.422Z,37.52
2019-02-16T02:20:14.404Z,37.53
2019-02-16T02:22:43.340Z,37.61
2019-02-16T02:25:12.314Z,37.63
2019-02-16T02:27:41.317Z,37.65
2019-02-16T02:30:10.751Z,37.68
2019-02-16T02:32:39.713Z,37.71
2019-02-16T02:35:08.722Z,37.73
2019-02-16T02:37:37.664Z,37.74
2019-02-16T02:40:06.678Z,37.70
2019-02-16T02:42:35.634Z,37.70
2019-02-16T02:45:04.906Z,37.71
2019-02-16T02:47:33.859Z,37.70
2019-02-16T02:50:02.842Z,37.69
2019-02-16T02:52:31.802Z,37.68
2019-02-16T02:55:00.828Z,37.70
2019-02-16T02:57:29.767Z,37.72
2019-02-16T02:59:58.753Z,37.70
2019-02-16T03:02:27.735Z,37.72
2019-02-16T03:04:56.713Z,37.77
2019-02-16T03:07:25.659Z,37.79
2019-02-16T03:09:54.645Z,37.81
2019-02-16T03:12:23.603Z,37.83
2019-02-16T03:14:52.590Z,37.85
2019-02-16T03:17:21.530Z,37.89
2019-02-16T03:19:50.489Z,37.91
2019-02-16T03:22:19.436Z,37.93
2019-02-16T03:24:48.337Z,37.97
2019-02-16T03:28:01.791Z,38.01
2019-02-16T03:31:07.294Z,38.03
2019-02-16T03:33:47.716Z,38.07
2019-02-16T03:37:03.426Z,38.12
2019-02-16T03:39:36.245Z,38.16
2019-02-16T03:42:05.253Z,38.18
2019-02-16T03:44:34.226Z,38.21
2019-02-16T03:47:03.193Z,38.23
2019-02-16T03:49:32.143Z,38.28
2019-02-16T03:52:01.084Z,38.29
2019-02-16T03:54:30.006Z,38.34
2019-02-16T03:56:58.966Z,38.35
2019-02-16T03:59:27.855Z,38.39
2019-02-16T04:01:56.772Z,38.39
2019-02-16T04:04:25.771Z,38.42
2019-02-16T04:06:54.731Z,38.45
2019-02-16T04:09:23.582Z,38.46
2019-02-16T04:11:52.531Z,38.50
2019-02-16T04:14:21.548Z,38.55
2019-02-16T04:16:50.472Z,38.56
2019-02-16T04:19:19.431Z,38.57
2019-02-16T04:21:48.364Z,38.58
2019-02-16T04:24:17.456Z,38.60
2019-02-16T04:26:46.395Z,38.58
2019-02-16T04:29:15.385Z,38.60
2019-02-16T04:31:44.320Z,38.57
2019-02-16T04:34:13.282Z,38.58
2019-02-16T04:36:42.219Z,38.56
2019-02-16T04:39:11.298Z,38.56
2019-02-16T04:41:40.221Z,38.56
2019-02-16T04:44:09.179Z,38.55
2019-02-16T04:46:38.134Z,38.54
2019-02-16T04:49:07.050Z,38.56
2019-02-16T04:51:35.991Z,38.58
2019-02-16T04:54:04.930Z,38.59
2019-02-16T04:56:33.905Z,38.60
2019-02-16T04:59:02.847Z,38.65
2019-02-16T05:01:31.793Z,38.67
2019-02-16T05:04:00.739Z,38.70
2019-02-16T05:06:29.683Z,38.73
2019-02-16T05:08:58.671Z,38.75
2019-02-16T05:11:27.611Z,38.78
2019-02-16T05:13:56.557Z,38.81
2019-02-16T05:16:25.500Z,38.84
2019-02-16T05:18:54.458Z,38.85
2019-02-16T05:21:23.387Z,38.92
2019-02-16T05:23:52.350Z,38.98
2019-02-16T05:26:21.179Z,38.99
2019-02-16T05:28:50.134Z,39.05
2019-02-16T05:31:19.064Z,39.06
2019-02-16T05:33:48.096Z,39.10
2019-02-16T05:36:16.978Z,39.11
2019-02-16T05:38:45.988Z,39.13
2019-02-16T05:41:14.918Z,39.16
2019-02-16T05:43:43.889Z,39.16
2019-02-16T05:46:12.862Z,39.20
2019-02-16T05:48:41.769Z,39.21
2019-02-16T05:51:10.725Z,39.23
2019-02-16T05:53:39.650Z,39.23
2019-02-16T05:56:08.584Z,39.26
2019-02-16T05:58:37.502Z,39.31
2019-02-16T06:01:06.440Z,39.30
2019-02-16T06:03:35.384Z,39.34
2019-02-16T06:06:04.301Z,39.33
2019-02-16T06:08:33.268Z,39.34
2019-02-16T06:11:03.197Z,39.40
2019-02-16T06:13:32.497Z,39.38
2019-02-16T06:16:01.425Z,39.42
2019-02-16T06:18:30.367Z,39.37
2019-02-16T06:20:59.289Z,39.41
2019-02-16T06:23:28.289Z,39.40
2019-02-16T06:25:57.216Z,39.40
2019-02-16T06:28:26.184Z,39.37
2019-02-16T06:30:55.102Z,39.40
2019-02-16T06:33:24.074Z,39.35
2019-02-16T06:36:00.277Z,39.38
2019-02-16T06:38:29.239Z,39.40
2019-02-16T06:40:58.195Z,39.37
2019-02-16T06:43:27.126Z,39.36
2019-02-16T06:45:56.080Z,39.36
2019-02-16T06:48:25.029Z,39.37
2019-02-16T06:50:53.926Z,39.38
2019-02-16T06:53:22.849Z,39.40
2019-02-16T06:55:58.832Z,39.39
2019-02-16T06:58:27.780Z,39.43
2019-02-16T07:00:56.729Z,39.43
2019-02-16T07:03:25.741Z,39.46
2019-02-16T07:05:54.695Z,39.47
2019-02-16T07:08:23.637Z,39.49
2019-02-16T07:10:52.568Z,39.54
2019-02-16T07:13:21.519Z,39.51
2019-02-16T07:16:07.953Z,39.51
2019-02-16T07:19:04.949Z,39.47
2019-02-16T07:21:33.875Z,39.36
2019-02-16T07:24:02.843Z,39.35
2019-02-16T07:26:31.779Z,39.26
2019-02-16T07:29:00.738Z,39.17
2019-02-16T07:31:29.677Z,39.09
2019-02-16T07:33:58.636Z,39.00
2019-02-16T07:36:27.601Z,39.08
2019-02-16T07:38:56.554Z,39.04
2019-02-16T07:41:25.540Z,38.90
2019-02-16T07:44:22.325Z,38.72
2019-02-16T07:47:12.974Z,38.53
2019-02-16T07:49:52.958Z,38.23
2019-02-16T07:52:39.620Z,37.56
2019-02-16T07:55:26.117Z,37.22
2019-02-16T07:58:03.995Z,36.93
2019-02-16T08:00:44.473Z,36.90
2019-02-16T08:03:41.440Z,36.85
2019-02-16T08:06:38.558Z,36.93
2019-02-16T08:09:29.211Z,36.90
2019-02-16T08:12:26.318Z,36.79
2019-02-16T08:15:09.637Z,36.88
2019-02-16T08:17:46.705Z,36.75
2019-02-16T08:20:37.846Z,36.67
2019-02-16T08:23:25.785Z,36.63
2019-02-16T08:26:02.274Z,36.68
2019-02-16T08:28:48.961Z,36.64
2019-02-16T08:31:26.842Z,36.58
2019-02-16T08:34:15.833Z,36.55
2019-02-16T08:37:06.734Z,36.33
2019-02-16T08:39:54.633Z,36.29
2019-02-16T08:42:52.035Z,35.69
2019-02-16T08:45:39.928Z,35.37
2019-02-16T08:48:24.664Z,35.07
2019-02-16T08:51:11.003Z,34.55
2019-02-16T08:53:56.580Z,34.81
2019-02-16T08:56:34.685Z,34.42
2019-02-16T08:59:21.253Z,34.28
2019-02-16T09:01:57.757Z,34.12
2019-02-16T09:04:35.289Z,33.98
2019-02-16T09:07:32.183Z,33.70
2019-02-16T09:10:38.594Z,33.51
2019-02-16T09:13:25.077Z,33.16
2019-02-16T09:16:14.336Z,33.13
2019-02-16T09:18:57.119Z,32.70
2019-02-16T09:21:53.957Z,32.57
2019-02-16T09:24:40.438Z,32.44
2019-02-16T09:27:46.660Z,32.19
2019-02-16T09:30:46.743Z,32.13
2019-02-16T09:33:46.422Z,31.98
2019-02-16T09:36:31.571Z,31.95
2019-02-16T09:39:22.885Z,31.83
2019-02-16T09:41:57.341Z,31.87
2019-02-16T09:44:48.268Z,31.80
2019-02-16T09:47:36.176Z,31.69
2019-02-16T09:50:20.823Z,31.61
2019-02-16T09:53:17.746Z,31.63
2019-02-16T09:55:54.900Z,31.68
2019-02-16T09:58:48.727Z,31.59
2019-02-16T10:01:39.782Z,31.58
2019-02-16T10:04:14.137Z,31.65
2019-02-16T10:07:11.303Z,31.36
2019-02-16T10:10:08.390Z,30.79
2019-02-16T10:12:56.308Z,30.48
2019-02-16T10:15:43.054Z,29.46
2019-02-16T10:18:37.130Z,29.43
2019-02-16T10:21:19.093Z,28.99
2019-02-16T10:24:05.730Z,27.40
2019-02-16T10:26:50.804Z,28.22
2019-02-16T10:29:41.498Z,28.06
2019-02-16T10:32:24.332Z,27.56
2019-02-16T10:35:03.333Z,26.93
2019-02-16T10:37:54.043Z,27.34
2019-02-16T10:41:01.504Z,27.42
2019-02-16T10:43:55.513Z,27.61
2019-02-16T10:46:43.460Z,27.42
2019-02-16T10:49:24.716Z,27.53
2019-02-16T10:52:02.485Z,27.89
2019-02-16T10:54:59.547Z,27.32
2019-02-16T10:57:53.507Z,27.86
2019-02-16T11:00:35.348Z,28.17
2019-02-16T11:03:23.142Z,28.33
2019-02-16T11:06:11.650Z,28.46
2019-02-16T11:08:51.158Z,28.46
2019-02-16T11:11:39.042Z,28.55
2019-02-16T11:14:27.052Z,28.80
2019-02-16T11:17:13.766Z,28.87
2019-02-16T11:19:57.303Z,28.98
2019-02-16T11:22:46.386Z,28.97
2019-02-16T11:25:32.971Z,28.32
2019-02-16T11:28:26.766Z,28.84
2019-02-16T11:31:11.415Z,28.99
2019-02-16T11:33:56.341Z,28.98
2019-02-16T11:36:40.927Z,28.78
2019-02-16T11:39:31.711Z,28.78
2019-02-16T11:42:06.298Z,28.03
2019-02-16T11:44:50.057Z,27.37
2019-02-16T11:47:50.171Z,27.77
2019-02-16T11:50:29.567Z,27.43
2019-02-16T11:53:23.801Z,27.87
2019-02-16T11:56:04.937Z,27.40
2019-02-16T11:58:51.655Z,27.89
2019-02-16T12:01:37.407Z,27.69
2019-02-16T12:04:17.225Z,27.42
2019-02-16T12:07:08.205Z,26.83
2019-02-16T12:09:53.397Z,27.40
2019-02-16T12:12:34.842Z,27.63
2019-02-16T12:15:28.980Z,27.90
2019-02-16T12:18:19.738Z,28.06
2019-02-16T12:21:13.628Z,27.96
2019-02-16T12:24:04.420Z,27.65
2019-02-16T12:26:45.143Z,28.00
2019-02-16T12:29:30.634Z,28.05
2019-02-16T12:32:15.022Z,28.07
2019-02-16T12:34:53.344Z,28.20
2019-02-16T12:37:40.318Z,28.20
2019-02-16T12:40:34.213Z,28.40
2019-02-16T12:43:20.980Z,28.40
2019-02-16T12:46:20.918Z,28.38
2019-02-16T12:49:12.574Z,28.39
2019-02-16T12:52:03.325Z,28.49
2019-02-16T12:54:49.864Z,28.65
2019-02-16T12:57:25.114Z,28.79
2019-02-16T13:00:22.277Z,28.95
2019-02-16T13:03:22.037Z,29.05
2019-02-16T13:06:25.173Z,29.21
2019-02-16T13:09:12.722Z,29.34
2019-02-16T13:12:02.144Z,29.47
2019-02-16T13:14:53.047Z,29.56
2019-02-16T13:17:49.965Z,29.66
2019-02-16T13:20:39.688Z,29.79
2019-02-16T13:23:27.593Z,29.93
2019-02-16T13:26:08.592Z,30.01
2019-02-16T13:29:02.863Z,30.11
2019-02-16T13:31:41.907Z,30.19
2019-02-16T13:34:19.928Z,30.28
2019-02-16T13:37:06.226Z,30.39
2019-02-16T13:40:00.302Z,30.52
2019-02-16T13:42:48.253Z,30.60
2019-02-16T13:45:23.328Z,30.69
2019-02-16T13:48:11.487Z,30.85
2019-02-16T13:51:02.498Z,30.90
2019-02-16T13:53:53.465Z,30.93
2019-02-16T13:56:37.455Z,30.94
2019-02-16T13:59:25.435Z,30.90
2019-02-16T14:02:16.876Z,31.01
2019-02-16T14:05:09.891Z,31.12
2019-02-16T14:08:09.853Z,31.21
2019-02-16T14:11:13.017Z,31.27
2019-02-16T14:14:01.061Z,31.29
2019-02-16T14:16:45.603Z,31.34
2019-02-16T14:19:14.892Z,31.41
2019-02-16T14:21:44.288Z,31.48
2019-02-16T14:24:13.505Z,31.48
2019-02-16T14:26:42.770Z,31.43
2019-02-16T14:29:11.866Z,31.55
2019-02-16T14:31:41.026Z,31.63
2019-02-16T14:34:10.200Z,31.72
2019-02-16T14:36:39.225Z,32.13
2019-02-16T14:39:28.298Z,32.04
2019-02-16T14:41:57.298Z,32.04
2019-02-16T14:44:26.341Z,32.04
2019-02-16T14:46:55.904Z,32.03
2019-02-16T14:49:25.259Z,32.03
2019-02-16T14:51:54.301Z,32.06
2019-02-16T14:54:23.192Z,32.07
2019-02-16T14:56:52.155Z,32.04
2019-02-16T14:59:21.069Z,32.11
2019-02-16T15:01:49.929Z,32.17
2019-02-16T15:04:18.887Z,32.12
2019-02-16T15:06:47.753Z,32.20
2019-02-16T15:09:16.754Z,32.27
2019-02-16T15:11:45.579Z,32.38
2019-02-16T15:14:14.536Z,32.43
2019-02-16T15:16:43.657Z,32.47
2019-02-16T15:19:13.195Z,32.55
2019-02-16T15:21:42.142Z,32.66
2019-02-16T15:24:11.032Z,32.79
2019-02-16T15:26:40.159Z,32.91
2019-02-16T15:29:09.125Z,33.04
2019-02-16T15:31:38.027Z,33.22
2019-02-16T15:34:07.007Z,33.36
2019-02-16T15:36:35.920Z,33.41
2019-02-16T15:39:05.901Z,33.51
2019-02-16T15:41:34.736Z,33.59
2019-02-16T15:44:03.588Z,33.68
2019-02-16T15:46:32.415Z,33.79
2019-02-16T15:49:01.246Z,33.83
2019-02-16T15:51:30.080Z,33.93
2019-02-16T15:53:59.044Z,34.13
2019-02-16T15:56:27.958Z,34.43
2019-02-16T15:58:56.930Z,34.86
2019-02-16T16:01:25.776Z,34.74
2019-02-16T16:03:54.854Z,34.78
2019-02-16T16:06:23.762Z,34.86
2019-02-16T16:09:14.712Z,34.79
2019-02-16T16:11:48.405Z,34.95
2019-02-16T16:14:39.317Z,35.09
2019-02-16T16:17:39.422Z,35.08
2019-02-16T16:20:36.530Z,35.74
2019-02-16T16:23:20.435Z,35.33
2019-02-16T16:25:58.935Z,35.46
2019-02-16T16:28:43.786Z,35.43
2019-02-16T16:31:32.329Z,35.42
2019-02-16T16:34:32.625Z,35.39
2019-02-16T16:37:23.302Z,35.39
2019-02-16T16:40:10.578Z,35.35
2019-02-16T16:43:22.529Z,35.28
2019-02-16T16:46:10.459Z,35.13
2019-02-16T16:49:01.100Z,34.97
2019-02-16T16:51:51.809Z,34.86
2019-02-16T16:54:42.405Z,34.62
2019-02-16T16:57:39.373Z,34.40
2019-02-16T17:00:26.061Z,34.23
2019-02-16T17:03:17.591Z,33.91
2019-02-16T17:05:59.458Z,33.76
2019-02-16T17:08:47.593Z,33.46
2019-02-16T17:11:35.952Z,33.27
2019-02-16T17:14:24.938Z,33.01
2019-02-16T17:17:11.231Z,32.78
2019-02-16T17:19:59.538Z,32.62
2019-02-16T17:22:46.120Z,32.52
2019-02-16T17:25:34.094Z,32.36
2019-02-16T17:28:25.104Z,32.29
2019-02-16T17:31:07.248Z,32.24
2019-02-16T17:34:01.172Z,32.21
2019-02-16T17:36:55.362Z,32.25
2019-02-16T17:39:37.313Z,32.09
2019-02-16T17:42:28.041Z,31.98
2019-02-16T17:45:10.341Z,31.65
2019-02-16T17:48:04.657Z,30.93
2019-02-16T17:50:55.513Z,30.69
2019-02-16T17:53:42.094Z,30.32
2019-02-16T17:56:16.187Z,29.95
2019-02-16T17:59:13.150Z,29.70
2019-02-16T18:02:10.356Z,29.34
2019-02-16T18:05:04.065Z,29.16
2019-02-16T18:07:57.783Z,28.37
2019-02-16T18:11:03.915Z,28.15
2019-02-16T18:13:46.210Z,28.39
2019-02-16T18:16:25.000Z,28.51
2019-02-16T18:19:08.244Z,28.68
2019-02-16T18:21:46.304Z,28.87
2019-02-16T18:24:36.532Z,29.11
2019-02-16T18:27:42.886Z,29.20
2019-02-16T18:30:29.530Z,29.42
2019-02-16T18:33:16.469Z,29.66
2019-02-16T18:36:04.356Z,29.82
2019-02-16T18:38:55.082Z,30.03
2019-02-16T18:42:01.077Z,30.36
2019-02-16T18:45:01.113Z,30.66
2019-02-16T18:47:43.864Z,31.10
2019-02-16T18:50:31.790Z,31.20
2019-02-16T18:53:23.262Z,31.50
2019-02-16T18:56:14.235Z,31.70
2019-02-16T18:58:52.707Z,31.86
2019-02-16T19:01:41.593Z,31.92
2019-02-16T19:04:35.850Z,31.74
2019-02-16T19:07:22.265Z,31.52
2019-02-16T19:10:10.144Z,31.29
2019-02-16T19:12:57.582Z,31.15
2019-02-16T19:15:38.028Z,30.94
2019-02-16T19:18:18.052Z,30.67
2019-02-16T19:21:05.201Z,30.64
2019-02-16T19:23:51.185Z,30.68
2019-02-16T19:26:41.931Z,30.58
2019-02-16T19:29:32.527Z,30.58
2019-02-16T19:32:20.294Z,30.58
2019-02-16T19:35:06.914Z,30.62
2019-02-16T19:37:42.461Z,30.63
2019-02-16T19:40:32.163Z,30.65
2019-02-16T19:43:20.323Z,30.73
2019-02-16T19:46:03.400Z,30.72
2019-02-16T19:48:58.229Z,30.73
2019-02-16T19:51:37.623Z,30.74
2019-02-16T19:54:17.599Z,30.80
2019-02-16T19:56:53.540Z,30.91
2019-02-16T19:59:44.975Z,30.90
2019-02-16T20:02:30.731Z,30.95
2019-02-16T20:05:23.299Z,30.97
2019-02-16T20:08:14.811Z,31.04
2019-02-16T20:11:03.119Z,31.14
2019-02-16T20:13:51.247Z,31.20
2019-02-16T20:16:29.844Z,31.25
2019-02-16T20:19:17.481Z,31.39
2019-02-16T20:21:58.127Z,31.50
2019-02-16T20:24:55.780Z,31.57
2019-02-16T20:27:46.992Z,31.63
2019-02-16T20:30:31.122Z,31.71
2019-02-16T20:33:18.055Z,31.79
2019-02-16T20:36:05.390Z,31.96
2019-02-16T20:38:56.444Z,31.99
2019-02-16T20:41:39.276Z,32.08
2019-02-16T20:44:21.929Z,32.26
2019-02-16T20:47:02.023Z,32.25
2019-02-16T20:49:55.798Z,31.51
2019-02-16T20:52:49.967Z,31.22
2019-02-16T20:55:43.960Z,31.21
2019-02-16T20:58:32.115Z,30.97
2019-02-16T21:01:26.290Z,30.70
2019-02-16T21:04:12.896Z,30.48
2019-02-16T21:07:13.285Z,30.26
2019-02-16T21:09:54.873Z,30.16
2019-02-16T21:12:45.887Z,30.07
2019-02-16T21:15:25.735Z,29.96
2019-02-16T21:18:28.995Z,29.83
2019-02-16T21:21:12.236Z,29.76
2019-02-16T21:23:58.688Z,29.75
2019-02-16T21:26:46.575Z,29.91
2019-02-16T21:29:31.595Z,30.00
2019-02-16T21:32:18.169Z,30.02
2019-02-16T21:34:56.614Z,30.04
2019-02-16T21:37:59.725Z,30.03
2019-02-16T21:40:53.628Z,30.06
2019-02-16T21:43:39.624Z,30.11
2019-02-16T21:46:26.384Z,30.19
2019-02-16T21:49:13.576Z,30.24
2019-02-16T21:51:50.542Z,30.32
2019-02-16T21:54:26.211Z,30.44
2019-02-16T21:57:06.659Z,30.54
2019-02-16T21:59:54.594Z,30.63
2019-02-16T22:02:32.277Z,30.72
2019-02-16T22:05:10.877Z,30.83
2019-02-16T22:07:52.551Z,30.94
2019-02-16T22:10:41.187Z,31.00
2019-02-16T22:13:10.192Z,31.08
2019-02-16T22:15:39.531Z,31.19
2019-02-16T22:18:08.361Z,31.30
2019-02-16T22:20:37.195Z,31.43
2019-02-16T22:23:06.025Z,31.47
2019-02-16T22:25:34.856Z,31.20
2019-02-16T22:28:03.733Z,31.22
2019-02-16T22:30:32.657Z,31.28
2019-02-16T22:33:01.814Z,31.42
2019-02-16T22:35:30.629Z,31.50
2019-02-16T22:37:59.614Z,31.66
2019-02-16T22:40:28.492Z,31.75
2019-02-16T22:42:57.502Z,31.85
2019-02-16T22:45:26.413Z,31.95
2019-02-16T22:47:55.155Z,32.05
2019-02-16T22:50:24.058Z,32.11
2019-02-16T22:52:52.901Z,32.22
2019-02-16T22:55:21.926Z,32.25
2019-02-16T22:57:50.849Z,32.34
2019-02-16T23:00:37.377Z,32.41
2019-02-16T23:03:07.859Z,32.53
2019-02-16T23:05:36.741Z,32.63
2019-02-16T23:08:05.614Z,32.71
2019-02-16T23:10:34.449Z,32.73
2019-02-16T23:13:03.388Z,32.84
2019-02-16T23:15:32.284Z,32.89
2019-02-16T23:18:01.276Z,32.99
2019-02-16T23:20:30.179Z,33.03
2019-02-16T23:22:59.097Z,33.10
2019-02-16T23:25:27.997Z,33.18
2019-02-16T23:27:56.824Z,33.25
2019-02-16T23:30:25.775Z,33.29
2019-02-16T23:32:56.885Z,33.34
2019-02-16T23:35:25.136Z,33.42
2019-02-16T23:37:54.073Z,33.45
2019-02-16T23:40:22.934Z,33.53
2019-02-16T23:42:51.865Z,33.63
2019-02-16T23:45:20.628Z,33.66
2019-02-16T23:47:49.537Z,33.73
2019-02-16T23:50:18.404Z,33.77
2019-02-16T23:52:47.520Z,33.85
2019-02-16T23:55:16.382Z,33.94
2019-02-16T23:57:45.356Z,33.98
